N311TY KVNY-

Flight info

Callsign N311TY
Flight time N/A
Altitude VFR/055
Route NE
Aircraft C208/L-SDFGR/C

Departure

Time 2026-05-04 01:03
Airport Van Nuys Airport (KVNY)

Arrival

Time N/A
Airport -
Time Latitude Longitude Altitude Speed Heading
2026-05-04 00:51 34.20536 -118.49168 778 ft 0 kts 270°
2026-05-04 00:56 34.20536 -118.49165 778 ft 1 kts 265°
2026-05-04 00:57 34.20531 -118.49157 777 ft 2 kts 356°
2026-05-04 00:57 34.20524 -118.49156 777 ft 0 kts 354°
2026-05-04 00:57 34.20528 -118.49156 777 ft 5 kts
2026-05-04 00:58 34.20533 -118.49153 778 ft 0 kts 47°
2026-05-04 00:59 34.20598 -118.49122 780 ft 18 kts
2026-05-04 00:59 34.20744 -118.49134 786 ft 21 kts 355°
2026-05-04 00:59 34.20890 -118.49147 791 ft 21 kts 355°
2026-05-04 01:00 34.21045 -118.49162 791 ft 24 kts 355°
2026-05-04 01:00 34.21211 -118.49177 794 ft 24 kts 356°
2026-05-04 01:00 34.21380 -118.49194 795 ft 25 kts 355°
2026-05-04 01:00 34.21558 -118.49219 798 ft 26 kts 356°
2026-05-04 01:01 34.21731 -118.49228 805 ft 24 kts 356°
2026-05-04 01:01 34.21851 -118.49238 807 ft 10 kts
2026-05-04 01:01 34.21870 -118.49220 808 ft 0 kts 79°
2026-05-04 01:02 34.21876 -118.49181 808 ft 21 kts 81°
2026-05-04 01:02 34.21888 -118.49027 809 ft 9 kts 82°
2026-05-04 01:02 34.21859 -118.48999 808 ft 0 kts 179°
2026-05-04 01:03 34.21839 -118.48997 807 ft 23 kts 175°
2026-05-04 01:03 34.21372 -118.48961 819 ft 99 kts 176°
2026-05-04 01:03 34.20642 -118.48872 1047 ft 116 kts 169°
2026-05-04 01:03 34.19901 -118.48426 1427 ft 123 kts 134°
2026-05-04 01:04 34.19540 -118.47460 1739 ft 135 kts 101°
2026-05-04 01:04 34.19775 -118.46370 1892 ft 149 kts 41°
2026-05-04 01:04 34.20754 -118.45901 2042 ft 154 kts 11°
2026-05-04 01:04 34.21791 -118.45556 2273 ft 153 kts
2026-05-04 01:05 34.22783 -118.45317 2762 ft 135 kts
2026-05-04 01:05 34.23638 -118.45190 3367 ft 115 kts 351°
2026-05-04 01:05 34.24412 -118.45212 3867 ft 110 kts 358°
2026-05-04 01:05 34.25167 -118.45217 4347 ft 108 kts 357°
2026-05-04 01:06 34.25911 -118.45226 4819 ft 106 kts 357°
2026-05-04 01:06 34.26652 -118.45242 5250 ft 107 kts 357°
2026-05-04 01:06 34.27421 -118.45249 5564 ft 123 kts 357°
2026-05-04 01:06 34.28400 -118.45251 5553 ft 155 kts 359°
2026-05-04 01:07 34.29520 -118.45260 5550 ft 170 kts 358°
2026-05-04 01:07 34.30736 -118.45274 5541 ft 179 kts 358°
2026-05-04 01:07 34.31997 -118.45290 5542 ft 183 kts 358°
2026-05-04 01:07 34.33261 -118.45158 5528 ft 185 kts 20°
2026-05-04 01:08 34.34327 -118.44348 5530 ft 178 kts 38°
2026-05-04 01:08 34.35317 -118.43457 5533 ft 178 kts 39°
2026-05-04 01:08 34.36291 -118.42580 5534 ft 171 kts 39°
2026-05-04 01:08 34.37249 -118.41716 5521 ft 171 kts 39°
2026-05-04 01:09 34.38217 -118.40843 5529 ft 178 kts 38°
2026-05-04 01:09 34.39219 -118.39921 5536 ft 183 kts 39°
2026-05-04 01:09 34.40239 -118.38982 5530 ft 185 kts 39°
2026-05-04 01:09 34.41270 -118.38037 5526 ft 187 kts 39°
2026-05-04 01:10 34.42304 -118.37089 5527 ft 187 kts 39°
2026-05-04 01:10 34.43346 -118.36128 5509 ft 187 kts 40°
2026-05-04 01:10 34.44392 -118.35175 5512 ft 188 kts 39°
2026-05-04 01:10 34.45423 -118.34231 5511 ft 188 kts 39°
2026-05-04 01:11 34.46467 -118.33271 5501 ft 188 kts 39°
2026-05-04 01:11 34.47494 -118.32323 5506 ft 189 kts 39°
2026-05-04 01:11 34.48537 -118.31336 5504 ft 188 kts 44°
2026-05-04 01:11 34.49294 -118.30078 5468 ft 185 kts 69°
2026-05-04 01:12 34.49806 -118.28635 5469 ft 188 kts 71°
2026-05-04 01:12 34.50319 -118.27179 5469 ft 188 kts 71°
2026-05-04 01:12 34.50823 -118.25713 5458 ft 190 kts 72°
2026-05-04 01:12 34.51328 -118.24250 5450 ft 187 kts 71°
2026-05-04 01:13 34.51841 -118.22796 5461 ft 188 kts 71°
2026-05-04 01:13 34.52363 -118.21339 5457 ft 189 kts 71°
2026-05-04 01:13 34.52892 -118.19876 5456 ft 190 kts 72°
2026-05-04 01:13 34.53421 -118.18404 5472 ft 192 kts 71°
2026-05-04 01:14 34.53634 -118.16871 5439 ft 177 kts 109°
2026-05-04 01:14 34.53311 -118.15498 5446 ft 168 kts 106°
2026-05-04 01:14 34.53272 -118.14053 5454 ft 175 kts 92°
2026-05-04 01:14 34.53391 -118.12558 5452 ft 181 kts 90°
2026-05-04 01:15 34.53510 -118.11059 5448 ft 175 kts 93°
2026-05-04 01:15 34.53605 -118.09596 5454 ft 175 kts 93°
2026-05-04 01:15 34.53712 -118.08124 5458 ft 176 kts 92°
2026-05-04 01:15 34.53820 -118.06641 5453 ft 176 kts 93°
2026-05-04 01:16 34.53919 -118.05177 5461 ft 177 kts 91°
2026-05-04 01:16 34.54025 -118.03690 5460 ft 177 kts 92°
2026-05-04 01:16 34.54133 -118.02200 5461 ft 178 kts 92°
2026-05-04 01:16 34.54237 -118.00709 5451 ft 178 kts 90°
2026-05-04 01:17 34.54347 -117.99210 5460 ft 179 kts 90°
2026-05-04 01:17 34.54450 -117.97699 5457 ft 179 kts 91°
2026-05-04 01:17 34.54556 -117.96197 5458 ft 178 kts 91°
2026-05-04 01:17 34.54659 -117.94690 5453 ft 180 kts 90°
2026-05-04 01:18 34.54766 -117.93183 5456 ft 179 kts 90°
2026-05-04 01:18 34.54873 -117.91681 5450 ft 179 kts 91°
2026-05-04 01:18 34.54977 -117.90170 5447 ft 180 kts 91°
2026-05-04 01:18 34.55082 -117.88664 5445 ft 179 kts 89°
2026-05-04 01:19 34.55189 -117.87156 5441 ft 180 kts 91°
2026-05-04 01:19 34.55295 -117.85639 5441 ft 181 kts 90°
2026-05-04 01:19 34.55399 -117.84113 5435 ft 179 kts 89°
2026-05-04 01:19 34.55481 -117.82622 5151 ft 180 kts 92°
2026-05-04 01:20 34.55494 -117.81111 4916 ft 176 kts 96°
2026-05-04 01:20 34.55440 -117.79641 4656 ft 175 kts 96°
2026-05-04 01:20 34.55346 -117.78175 4350 ft 177 kts 98°
2026-05-04 01:20 34.55222 -117.76702 4154 ft 174 kts 98°
2026-05-04 01:21 34.55102 -117.75248 3954 ft 172 kts 98°
2026-05-04 01:21 34.54977 -117.73813 3779 ft 170 kts 97°
2026-05-04 01:21 34.54901 -117.72377 3738 ft 171 kts 94°
2026-05-04 01:21 34.54993 -117.70976 3788 ft 161 kts 79°
2026-05-04 01:22 34.55218 -117.69664 3786 ft 158 kts 78°
2026-05-04 01:22 34.55548 -117.68434 3738 ft 145 kts 73°
2026-05-04 01:22 34.55711 -117.67372 3725 ft 115 kts 88°
2026-05-04 01:22 34.55788 -117.66445 3725 ft 108 kts 86°
2026-05-04 01:23 34.55865 -117.65526 3460 ft 111 kts 92°
2026-05-04 01:23 34.56085 -117.64715 3391 ft 97 kts 41°
2026-05-04 01:23 34.56683 -117.64641 3315 ft 81 kts 317°
2026-05-04 01:23 34.56717 -117.65269 3247 ft 82 kts 250°
2026-05-04 01:24 34.56670 -117.65991 3074 ft 86 kts 264°
2026-05-04 01:24 34.56666 -117.66656 3049 ft 66 kts 268°
2026-05-04 01:24 34.56663 -117.67121 3050 ft 47 kts 269°
2026-05-04 01:24 34.56663 -117.67486 3052 ft 42 kts 269°
2026-05-04 01:25 34.56662 -117.67812 3051 ft 35 kts 269°
2026-05-04 01:25 34.56627 -117.68008 3051 ft 16 kts 201°
2026-05-04 01:25 34.56536 -117.68024 3050 ft 0 kts 179°
2026-05-04 01:37 34.56533 -117.68024 3048 ft 5 kts 178°
2026-05-04 01:38 34.56525 -117.67996 3051 ft 10 kts 31°
2026-05-04 01:38 34.56631 -117.68005 3050 ft 17 kts 358°
2026-05-04 01:38 34.56659 -117.67879 3050 ft 44 kts 93°
2026-05-04 01:38 34.56662 -117.67236 3085 ft 98 kts 92°
2026-05-04 01:39 34.56622 -117.66435 3433 ft 95 kts 116°
2026-05-04 01:39 34.56652 -117.65602 3777 ft 107 kts 77°
2026-05-04 01:39 34.57116 -117.64735 3835 ft 133 kts 47°
2026-05-04 01:39 34.57669 -117.63900 4248 ft 124 kts 51°
2026-05-04 01:40 34.58223 -117.63100 4577 ft 124 kts 50°
2026-05-04 01:40 34.58793 -117.62297 4857 ft 129 kts 51°
2026-05-04 01:40 34.59176 -117.61742 5034 ft 130 kts 49°
2026-05-04 01:40 34.59756 -117.60913 5323 ft 129 kts 49°
2026-05-04 01:41 34.60352 -117.60032 5430 ft 144 kts 50°
2026-05-04 01:41 34.61036 -117.59058 5442 ft 158 kts 50°
2026-05-04 01:41 34.61798 -117.57975 5423 ft 177 kts 50°
2026-05-04 01:41 34.62628 -117.56813 5434 ft 186 kts 50°
2026-05-04 01:42 34.63490 -117.55604 5447 ft 192 kts 50°
2026-05-04 01:42 34.64365 -117.54363 5453 ft 196 kts 50°
2026-05-04 01:42 34.65262 -117.53105 5458 ft 198 kts 50°
2026-05-04 01:42 34.66249 -117.51989 5445 ft 195 kts 30°
2026-05-04 01:43 34.67358 -117.51082 5443 ft 191 kts 42°
2026-05-04 01:43 34.68050 -117.49739 5442 ft 187 kts 73°
2026-05-04 01:43 34.68254 -117.48217 5446 ft 179 kts 97°
2026-05-04 01:43 34.67997 -117.46784 5452 ft 170 kts 120°
2026-05-04 01:44 34.67381 -117.45609 5458 ft 162 kts 137°
2026-05-04 01:44 34.66786 -117.44398 5318 ft 172 kts 126°
2026-05-04 01:44 34.66294 -117.43041 5093 ft 177 kts 120°
2026-05-04 01:44 34.66066 -117.41546 4725 ft 185 kts 100°
2026-05-04 01:45 34.66068 -117.40014 4293 ft 174 kts 101°
2026-05-04 01:45 34.66068 -117.38570 3773 ft 162 kts 117°
2026-05-04 01:45 34.64618 -117.38331 3356 ft 99 kts 204°
2026-05-04 01:46 34.63995 -117.38617 3196 ft 94 kts 187°
2026-05-04 01:46 34.63377 -117.38702 3095 ft 82 kts 175°
2026-05-04 01:46 34.62863 -117.38691 2983 ft 69 kts 175°
2026-05-04 01:46 34.62381 -117.38681 2905 ft 70 kts 176°
2026-05-04 01:47 34.61907 -117.38676 2832 ft 66 kts 176°
2026-05-04 01:47 34.61532 -117.38673 2833 ft 41 kts 179°
2026-05-04 01:47 34.61305 -117.38670 2840 ft 29 kts 179°
2026-05-04 01:47 34.61137 -117.38666 2843 ft 18 kts 172°
2026-05-04 01:48 34.61061 -117.38550 2843 ft 20 kts 103°
2026-05-04 01:48 34.61003 -117.38420 2841 ft 17 kts 174°
2026-05-04 01:48 34.60863 -117.38423 2845 ft 10 kts 185°